Time;durP1;ratioP1;P1;durP2;ratioP2;P2;SDS_P1;SDS_P2;PMS_P1;PMS_P2;Temp;Humidity;BMP_temperature;BMP_pressure;BME280_temperature;BME280_humidity;BME280_pressure;Samples;Min_cycle;Max_cycle;Signal;HPM_P1;HPM_P2
2022/07/14 00:01:02;;;;;;;2.20;2.00;;;20.90;71.30;;;;;;6199337;23;20011;-67
2022/07/14 00:03:28;;;;;;;2.03;1.83;;;20.80;71.00;;;;;;6209001;23;21044;-66
2022/07/14 00:05:53;;;;;;;2.45;1.67;;;20.80;71.40;;;;;;6199680;23;20013;-67
2022/07/14 00:08:19;;;;;;;2.42;2.00;;;20.80;71.60;;;;;;6199436;23;20088;-67
2022/07/14 00:10:45;;;;;;;2.85;1.85;;;20.70;71.80;;;;;;6200718;23;20012;-66
2022/07/14 00:13:11;;;;;;;2.28;1.80;;;20.70;72.00;;;;;;6211773;23;20008;-67
2022/07/14 00:15:37;;;;;;;2.58;1.95;;;20.60;72.20;;;;;;6202011;23;20373;-67
2022/07/14 00:18:03;;;;;;;2.45;1.90;;;20.60;72.50;;;;;;6200595;23;20576;-66
2022/07/14 00:20:29;;;;;;;2.30;2.10;;;20.50;72.70;;;;;;6202037;23;20043;-67
2022/07/14 00:22:58;;;;;;;3.53;2.10;;;20.40;72.70;;;;;;6198954;23;20005;-67
2022/07/14 00:25:25;;;;;;;2.95;2.10;;;20.40;73.10;;;;;;6205500;23;20538;-67
2022/07/14 00:27:51;;;;;;;2.85;2.25;;;20.30;73.30;;;;;;6196378;23;20008;-67
2022/07/14 00:30:17;;;;;;;2.20;2.00;;;20.30;73.40;;;;;;6197053;23;20079;-67
2022/07/14 00:32:43;;;;;;;3.08;2.00;;;20.30;73.80;;;;;;6206621;23;20012;-67
2022/07/14 00:35:09;;;;;;;3.72;2.22;;;20.20;74.10;;;;;;6206676;23;20016;-67
2022/07/14 00:37:37;;;;;;;2.80;2.33;;;20.20;74.20;;;;;;6196667;23;20027;-66
2022/07/14 00:40:05;;;;;;;4.32;2.25;;;20.20;74.30;;;;;;6198520;23;20005;-67
2022/07/14 00:42:33;;;;;;;2.50;2.30;;;20.20;74.70;;;;;;6197402;23;20008;-67
2022/07/14 00:45:04;;;;;;;2.97;2.05;;;20.20;74.70;;;;;;6197972;23;20867;-67
2022/07/14 00:47:30;;;;;;;2.33;2.08;;;20.10;74.80;;;;;;6197864;23;20011;-67
2022/07/14 00:49:56;;;;;;;3.42;2.15;;;20.20;74.80;;;;;;6199388;23;20012;-67
2022/07/14 00:52:27;;;;;;;2.10;1.90;;;20.20;74.80;;;;;;6197864;23;20023;-66
2022/07/14 00:54:54;;;;;;;2.45;2.20;;;20.20;75.00;;;;;;6199105;23;20012;-67
2022/07/14 00:57:20;;;;;;;2.05;1.70;;;20.20;74.90;;;;;;6197080;23;20009;-66
2022/07/14 00:59:47;;;;;;;4.05;2.72;;;20.20;75.00;;;;;;6199520;23;20042;-67
2022/07/14 01:02:13;;;;;;;5.90;2.15;;;20.20;75.30;;;;;;6208521;23;20008;-66
2022/07/14 01:04:39;;;;;;;2.28;2.08;;;20.20;75.40;;;;;;6209799;23;20327;-66
2022/07/14 01:07:05;;;;;;;3.08;2.10;;;20.20;75.50;;;;;;6196220;23;20020;-67
2022/07/14 01:09:31;;;;;;;2.60;2.10;;;20.10;75.40;;;;;;6198953;23;20012;-66
2022/07/14 01:11:57;;;;;;;3.97;2.08;;;20.20;75.70;;;;;;6198618;23;20016;-66
2022/07/14 01:14:26;;;;;;;4.65;1.80;;;20.20;76.00;;;;;;6198532;23;20027;-67
2022/07/14 01:16:57;;;;;;;3.00;2.10;;;20.20;76.20;;;;;;6207898;23;20012;-68
2022/07/14 01:19:24;;;;;;;2.55;1.80;;;20.20;76.10;;;;;;6199056;23;20091;-67
2022/07/14 01:21:51;;;;;;;4.50;2.63;;;20.20;76.10;;;;;;6197093;23;20004;-66
2022/07/14 01:24:17;;;;;;;2.38;1.90;;;20.20;76.20;;;;;;6196936;23;20480;-66
2022/07/14 01:26:43;;;;;;;3.80;2.20;;;20.10;75.80;;;;;;6198386;23;20524;-67
2022/07/14 01:29:09;;;;;;;4.47;1.83;;;20.10;75.90;;;;;;6196896;23;20044;-67
2022/07/14 01:31:35;;;;;;;1.98;1.73;;;20.20;75.90;;;;;;6196729;23;20020;-66
2022/07/14 01:34:01;;;;;;;2.13;1.83;;;20.20;75.90;;;;;;6209159;23;20012;-66
2022/07/14 01:36:27;;;;;;;2.40;2.00;;;20.20;75.70;;;;;;6197610;23;20019;-66
2022/07/14 01:38:52;;;;;;;3.05;1.83;;;20.20;75.90;;;;;;6196417;23;20012;-67
2022/07/14 01:41:20;;;;;;;3.28;1.80;;;20.20;76.00;;;;;;6209563;23;20011;-67
2022/07/14 01:43:46;;;;;;;2.28;1.75;;;20.20;75.80;;;;;;6210166;23;20004;-67
2022/07/14 01:46:12;;;;;;;2.22;1.90;;;20.10;75.40;;;;;;6197523;23;20541;-67
2022/07/14 01:48:38;;;;;;;2.25;1.80;;;20.20;75.30;;;;;;6197236;23;20012;-67
2022/07/14 01:51:04;;;;;;;3.22;1.98;;;20.20;75.40;;;;;;6209037;23;20074;-67
2022/07/14 01:53:31;;;;;;;1.85;1.50;;;20.10;75.30;;;;;;6196950;23;20023;-66
2022/07/14 01:55:58;;;;;;;3.58;1.67;;;20.10;75.20;;;;;;6196311;23;20074;-66
2022/07/14 01:58:25;;;;;;;4.43;1.88;;;20.10;75.00;;;;;;6195637;23;20083;-66
2022/07/14 02:03:36;;;;;;;4.07;1.45;;;20.10;74.00;;;;;;6196512;23;20012;-67
2022/07/14 02:06:03;;;;;;;3.45;1.73;;;20.00;74.20;;;;;;6209583;23;20259;-67
2022/07/14 02:08:29;;;;;;;5.25;2.08;;;20.00;74.10;;;;;;6196811;23;20117;-66
2022/07/14 02:13:40;;;;;;;3.45;1.38;;;19.90;74.50;;;;;;6197993;23;20013;-66
2022/07/14 02:16:08;;;;;;;5.13;1.88;;;19.90;74.50;;;;;;6197943;23;20016;-67
2022/07/14 02:18:35;;;;;;;2.97;1.63;;;19.80;74.70;;;;;;6197109;23;20459;-66
2022/07/14 02:21:01;;;;;;;5.15;2.10;;;19.70;74.70;;;;;;6197845;23;20013;-67
2022/07/14 02:23:27;;;;;;;4.00;1.40;;;19.70;74.80;;;;;;6199591;23;20111;-67
2022/07/14 02:25:52;;;;;;;7.13;2.25;;;19.60;74.80;;;;;;6198173;23;20087;-66
2022/07/14 02:28:18;;;;;;;4.28;1.73;;;19.60;74.80;;;;;;6197191;23;20023;-66
2022/07/14 02:30:46;;;;;;;3.80;1.58;;;19.50;74.70;;;;;;6199961;23;20087;-67
2022/07/14 02:33:12;;;;;;;6.28;1.58;;;19.50;74.90;;;;;;6209532;23;20036;-66
2022/07/14 02:35:38;;;;;;;3.05;1.42;;;19.50;74.90;;;;;;6200278;23;20012;-67
2022/07/14 02:38:04;;;;;;;7.75;2.10;;;19.40;74.60;;;;;;6197036;23;20020;-67
2022/07/14 02:40:30;;;;;;;6.85;1.98;;;19.40;74.80;;;;;;6197887;23;20020;-67
2022/07/14 02:42:56;;;;;;;3.95;1.50;;;19.30;74.90;;;;;;6199937;23;20530;-67
2022/07/14 02:45:22;;;;;;;2.97;1.38;;;19.30;75.20;;;;;;6197133;23;20029;-66
2022/07/14 02:47:48;;;;;;;5.60;1.80;;;19.30;75.30;;;;;;6197119;23;20032;-67
2022/07/14 02:50:14;;;;;;;5.47;1.67;;;19.30;75.90;;;;;;6198280;23;20044;-67
2022/07/14 02:52:40;;;;;;;5.82;1.58;;;19.20;75.50;;;;;;6197418;23;20016;-67
2022/07/14 02:55:06;;;;;;;5.97;1.73;;;19.20;75.50;;;;;;6197139;23;20432;-66
2022/07/14 02:57:36;;;;;;;4.97;1.63;;;19.10;75.90;;;;;;6196958;23;20686;-67
2022/07/14 03:00:04;;;;;;;8.00;1.60;;;19.10;75.60;;;;;;6197366;23;20015;-68
2022/07/14 03:02:32;;;;;;;7.60;1.98;;;19.00;75.00;;;;;;6197302;23;20087;-66
2022/07/14 03:04:58;;;;;;;6.55;1.77;;;19.00;75.10;;;;;;6198331;23;20032;-66
2022/07/14 03:07:24;;;;;;;4.50;1.80;;;18.90;74.90;;;;;;6196846;23;20751;-66
2022/07/14 03:09:50;;;;;;;4.25;1.73;;;18.80;75.40;;;;;;6198234;23;20023;-67
2022/07/14 03:12:16;;;;;;;4.13;1.42;;;18.80;75.20;;;;;;6197935;23;20016;-67
2022/07/14 03:14:43;;;;;;;7.40;1.63;;;18.80;74.40;;;;;;6197501;23;20008;-67
2022/07/14 03:17:08;;;;;;;6.05;1.55;;;18.80;74.30;;;;;;6197562;23;20013;-66
2022/07/14 03:19:34;;;;;;;6.68;1.88;;;18.70;74.60;;;;;;6197695;23;20514;-66
2022/07/14 03:22:02;;;;;;;6.53;1.50;;;18.70;73.90;;;;;;6197518;23;20350;-66
2022/07/14 03:24:30;;;;;;;7.18;1.83;;;18.70;73.80;;;;;;6198548;23;20008;-67
2022/07/14 03:26:56;;;;;;;9.65;2.22;;;18.60;73.70;;;;;;6197666;23;20015;-66
2022/07/14 03:29:22;;;;;;;7.53;1.55;;;18.70;73.60;;;;;;6209630;23;20012;-66
2022/07/14 03:31:49;;;;;;;6.50;1.60;;;18.60;73.40;;;;;;6196915;23;20012;-67
2022/07/14 03:34:15;;;;;;;11.27;1.98;;;18.60;73.30;;;;;;6197351;23;20363;-67
2022/07/14 03:36:43;;;;;;;6.28;1.52;;;18.60;73.10;;;;;;6196959;23;20091;-66
2022/07/14 03:39:13;;;;;;;7.18;1.88;;;18.60;73.20;;;;;;6197485;23;20016;-66
2022/07/14 03:41:39;;;;;;;4.75;1.33;;;18.50;73.50;;;;;;6198230;23;20035;-67
2022/07/14 03:44:06;;;;;;;6.13;1.90;;;18.60;73.30;;;;;;6209369;23;20035;-66
2022/07/14 03:46:31;;;;;;;7.57;2.13;;;18.50;73.60;;;;;;6200972;23;20004;-66
2022/07/14 03:49:05;;;;;;;11.65;2.15;;;18.50;73.50;;;;;;6199657;23;20009;-66
2022/07/14 03:51:31;;;;;;;9.27;2.00;;;18.40;74.00;;;;;;6199773;23;20752;-66
2022/07/14 03:53:57;;;;;;;5.25;1.55;;;18.40;74.10;;;;;;6174907;23;20004;-66
2022/07/14 03:56:25;;;;;;;7.32;1.95;;;18.40;74.00;;;;;;6199321;23;20063;-66
2022/07/14 03:58:50;;;;;;;9.90;1.50;;;18.30;74.10;;;;;;6199567;23;20016;-66
2022/07/14 04:05:08;;;;;;;9.15;1.80;;;18.10;74.40;;;;;;6199936;23;20016;-66
2022/07/14 04:07:34;;;;;;;5.60;1.63;;;18.10;74.70;;;;;;6200035;23;20008;-67
2022/07/14 04:10:02;;;;;;;6.43;1.67;;;18.10;75.00;;;;;;6201065;23;20012;-66
2022/07/14 04:12:28;;;;;;;10.70;2.15;;;18.00;75.10;;;;;;6200015;23;20092;-67
2022/07/14 04:14:54;;;;;;;7.88;1.73;;;18.00;75.30;;;;;;6213003;23;20108;-66
2022/07/14 04:17:20;;;;;;;6.57;1.73;;;18.00;75.50;;;;;;6199646;23;20009;-66
2022/07/14 04:19:46;;;;;;;8.27;2.03;;;17.90;75.40;;;;;;6211793;23;20012;-67
2022/07/14 04:22:12;;;;;;;4.97;1.83;;;17.90;75.40;;;;;;6199853;23;20011;-66
2022/07/14 04:24:41;;;;;;;11.15;2.20;;;17.90;75.60;;;;;;6199993;23;20009;-67
2022/07/14 04:27:07;;;;;;;14.10;1.85;;;17.90;75.60;;;;;;6198883;23;20005;-67
2022/07/14 04:29:32;;;;;;;7.93;1.40;;;17.90;76.00;;;;;;6199753;23;20023;-68
2022/07/14 04:31:58;;;;;;;12.43;2.13;;;17.80;75.90;;;;;;6211664;23;20019;-66
2022/07/14 04:34:25;;;;;;;6.53;1.75;;;17.80;76.10;;;;;;6199675;23;20047;-66
2022/07/14 04:36:51;;;;;;;9.40;1.88;;;17.80;76.00;;;;;;6199026;23;20439;-66
2022/07/14 04:39:17;;;;;;;7.57;1.67;;;17.80;76.10;;;;;;6211036;23;20009;-66
2022/07/14 04:41:44;;;;;;;7.95;1.70;;;17.80;76.20;;;;;;6199768;23;20358;-66
2022/07/14 04:44:10;;;;;;;7.43;1.90;;;17.80;76.30;;;;;;6212136;23;20032;-66
2022/07/14 04:46:40;;;;;;;4.85;1.50;;;17.80;76.40;;;;;;6199480;23;20111;-67
2022/07/14 04:52:03;;;;;;;7.75;1.85;;;17.70;76.90;;;;;;6200819;23;20107;-67
2022/07/14 04:54:34;;;;;;;5.20;1.92;;;17.70;77.10;;;;;;6200382;23;20008;-67
2022/07/14 04:57:19;;;;;;;8.70;1.80;;;17.80;77.40;;;;;;6200683;23;20051;-66
2022/07/14 04:59:47;;;;;;;6.30;1.83;;;17.80;77.30;;;;;;6199416;23;20466;-66
2022/07/14 05:02:14;;;;;;;7.13;1.92;;;17.90;77.10;;;;;;6200474;23;20008;-66
2022/07/14 05:04:40;;;;;;;7.90;1.77;;;17.90;76.60;;;;;;6198961;23;20107;-66
2022/07/14 05:07:07;;;;;;;7.00;2.20;;;17.90;76.40;;;;;;6199314;23;20011;-66
2022/07/14 05:09:35;;;;;;;8.75;1.80;;;17.90;76.10;;;;;;6199234;23;20154;-67
2022/07/14 05:12:04;;;;;;;13.77;2.70;;;18.00;76.50;;;;;;6198673;23;20005;-66
2022/07/14 05:14:31;;;;;;;6.35;1.70;;;18.00;76.40;;;;;;6199816;23;20051;-67
2022/07/14 05:16:59;;;;;;;7.10;1.85;;;18.00;76.10;;;;;;6198430;23;20019;-66
2022/07/14 05:19:25;;;;;;;8.70;1.90;;;18.00;76.00;;;;;;6198755;23;20008;-67
2022/07/14 05:21:52;;;;;;;7.55;1.58;;;18.10;75.80;;;;;;6199562;23;20009;-67
2022/07/14 05:24:18;;;;;;;6.75;1.67;;;18.00;76.20;;;;;;6199262;23;20012;-66
2022/07/14 05:26:44;;;;;;;7.35;1.80;;;18.10;76.10;;;;;;6197969;23;20438;-67
2022/07/14 05:29:09;;;;;;;10.75;2.17;;;18.10;76.10;;;;;;6199728;23;20349;-66
2022/07/14 05:31:37;;;;;;;9.13;2.20;;;18.20;75.60;;;;;;6199573;23;20004;-66
2022/07/14 05:34:03;;;;;;;4.78;1.90;;;18.20;75.70;;;;;;6199334;23;20105;-66
2022/07/14 05:36:29;;;;;;;7.80;2.13;;;18.30;75.10;;;;;;6201295;23;20040;-67
2022/07/14 05:38:55;;;;;;;9.85;1.92;;;18.40;74.90;;;;;;6198760;23;20109;-66
2022/07/14 05:41:21;;;;;;;6.75;1.65;;;18.40;74.30;;;;;;6198822;23;20096;-66
2022/07/14 05:43:47;;;;;;;11.45;1.85;;;18.40;74.20;;;;;;6210988;23;20005;-66
2022/07/14 05:46:14;;;;;;;9.15;1.80;;;18.50;73.60;;;;;;6198873;23;20043;-67
2022/07/14 05:48:41;;;;;;;8.18;1.50;;;18.40;73.40;;;;;;6197938;23;20008;-67
2022/07/14 05:51:16;;;;;;;9.52;1.60;;;18.50;73.60;;;;;;6199042;23;20513;-67
2022/07/14 05:53:46;;;;;;;8.48;1.35;;;18.50;73.50;;;;;;6199183;23;20039;-67
2022/07/14 05:56:17;;;;;;;12.68;2.10;;;18.60;73.40;;;;;;6198250;23;20012;-67
2022/07/14 05:58:45;;;;;;;7.38;1.50;;;18.60;72.80;;;;;;6198107;23;20009;-66
2022/07/14 06:01:12;;;;;;;4.22;1.40;;;18.60;72.70;;;;;;6211433;23;20009;-66
2022/07/14 06:03:38;;;;;;;6.43;1.80;;;18.60;72.90;;;;;;6210729;23;20439;-67
2022/07/14 06:06:07;;;;;;;9.02;2.00;;;18.70;72.50;;;;;;6199577;23;20147;-67
2022/07/14 06:08:34;;;;;;;7.70;1.52;;;18.80;72.80;;;;;;6199409;23;20103;-67
2022/07/14 06:11:00;;;;;;;5.95;1.30;;;18.80;71.80;;;;;;6199471;23;20108;-67
2022/07/14 06:13:29;;;;;;;7.45;1.60;;;18.80;72.00;;;;;;6200487;23;20043;-67
2022/07/14 06:15:56;;;;;;;13.25;1.63;;;18.90;71.70;;;;;;6199870;23;20027;-67
2022/07/14 06:18:24;;;;;;;5.80;1.40;;;19.10;70.90;;;;;;6200573;23;20016;-66
2022/07/14 06:20:50;;;;;;;6.65;1.33;;;19.20;69.90;;;;;;6199496;23;20036;-67
2022/07/14 06:23:16;;;;;;;7.47;1.70;;;19.30;70.10;;;;;;6199622;23;20365;-67
2022/07/14 06:25:44;;;;;;;11.25;1.90;;;19.30;69.60;;;;;;6198177;23;20012;-66
2022/07/14 06:28:12;;;;;;;8.07;1.85;;;19.30;69.20;;;;;;6198642;23;20008;-66
2022/07/14 06:30:41;;;;;;;7.18;1.35;;;19.40;69.50;;;;;;6199010;23;20601;-67
2022/07/14 06:33:07;;;;;;;10.50;1.80;;;19.50;69.20;;;;;;6210007;23;20015;-67
2022/07/14 06:35:33;;;;;;;5.07;1.23;;;19.50;68.80;;;;;;6198581;23;20735;-66
2022/07/14 06:38:00;;;;;;;9.45;1.70;;;19.50;68.50;;;;;;6197018;23;20027;-66
2022/07/14 06:40:25;;;;;;;10.13;1.63;;;19.60;69.00;;;;;;6196992;23;20017;-66
2022/07/14 06:42:52;;;;;;;8.82;1.83;;;19.70;68.90;;;;;;6198227;23;20633;-67
2022/07/14 06:45:44;;;;;;;5.53;1.38;;;19.80;67.80;;;;;;6202007;23;20891;-67
2022/07/14 06:48:10;;;;;;;5.82;1.30;;;19.80;67.20;;;;;;6209579;23;20001;-66
2022/07/14 06:50:36;;;;;;;6.85;1.58;;;19.70;67.00;;;;;;6210932;23;20013;-67
2022/07/14 06:53:02;;;;;;;6.55;1.73;;;19.80;66.80;;;;;;6198546;23;20012;-66
2022/07/14 06:55:27;;;;;;;9.32;1.52;;;19.80;66.60;;;;;;6210657;23;20008;-66
2022/07/14 06:57:53;;;;;;;8.50;1.38;;;19.70;66.20;;;;;;6200506;23;20208;-67
2022/07/14 07:00:19;;;;;;;4.13;1.20;;;19.80;65.90;;;;;;6201052;23;20028;-67
2022/07/14 07:02:45;;;;;;;25.08;12.57;;;19.80;66.20;;;;;;6210945;23;20152;-68
2022/07/14 07:08:00;;;;;;;14.98;4.50;;;19.90;66.20;;;;;;6210855;23;20402;-69
2022/07/14 07:10:27;;;;;;;5.68;1.40;;;19.90;65.20;;;;;;6200144;23;20023;-65
2022/07/14 07:12:54;;;;;;;5.55;1.30;;;20.00;65.60;;;;;;6195857;23;20142;-67
2022/07/14 07:15:20;;;;;;;4.97;1.27;;;20.10;65.10;;;;;;6200794;23;20780;-64
2022/07/14 07:17:46;;;;;;;5.80;1.13;;;20.10;64.90;;;;;;6210442;23;20415;-64
2022/07/14 07:20:11;;;;;;;8.82;3.05;;;20.10;64.60;;;;;;6200576;23;20106;-65
2022/07/14 07:22:38;;;;;;;2.83;1.33;;;20.10;64.80;;;;;;6210701;23;20868;-64
2022/07/14 07:25:07;;;;;;;8.35;1.60;;;20.20;65.20;;;;;;6200108;23;20853;-64
2022/07/14 07:27:33;;;;;;;9.05;1.83;;;20.30;64.30;;;;;;6197097;23;20013;-64
2022/07/14 07:30:00;;;;;;;8.70;1.50;;;20.30;63.80;;;;;;6199871;23;20016;-64
2022/07/14 07:32:27;;;;;;;6.38;1.27;;;20.50;63.80;;;;;;6197632;23;20018;-69
2022/07/14 07:34:54;;;;;;;6.10;1.38;;;20.50;61.90;;;;;;6209979;23;20017;-65
2022/07/14 07:37:19;;;;;;;4.68;1.30;;;20.60;61.70;;;;;;6199125;23;20020;-65
2022/07/14 07:39:45;;;;;;;6.90;1.10;;;20.50;61.80;;;;;;6208884;23;20715;-66
2022/07/14 07:42:11;;;;;;;7.28;1.08;;;20.60;62.80;;;;;;6199961;23;20545;-65
2022/07/14 07:44:37;;;;;;;5.22;1.05;;;20.60;61.50;;;;;;6207107;23;20011;-65
2022/07/14 07:47:03;;;;;;;7.93;1.30;;;20.60;62.10;;;;;;6197643;23;20007;-64
2022/07/14 07:49:29;;;;;;;3.85;0.88;;;20.60;61.20;;;;;;6208271;23;20059;-66
2022/07/14 07:51:59;;;;;;;7.95;1.45;;;20.60;61.50;;;;;;6208175;23;20012;-65
2022/07/14 07:54:26;;;;;;;4.70;1.20;;;20.70;61.30;;;;;;6197355;23;20039;-65
2022/07/14 07:56:53;;;;;;;7.25;1.67;;;20.70;61.20;;;;;;6197863;23;20008;-64
2022/07/14 07:59:18;;;;;;;6.53;1.77;;;20.70;61.20;;;;;;6199820;23;20778;-63
2022/07/14 08:01:44;;;;;;;5.68;1.45;;;20.80;60.80;;;;;;6209678;23;20004;-64
2022/07/14 08:04:10;;;;;;;8.38;1.27;;;20.80;60.60;;;;;;6209702;23;20062;-63
2022/07/14 08:06:36;;;;;;;4.68;1.20;;;20.90;61.20;;;;;;6198244;23;20008;-66
2022/07/14 08:09:02;;;;;;;5.18;1.27;;;21.00;60.10;;;;;;6208818;23;20046;-65
2022/07/14 08:11:29;;;;;;;6.32;1.20;;;21.10;60.10;;;;;;6200211;23;20019;-65
2022/07/14 08:13:55;;;;;;;3.85;0.80;;;21.10;59.60;;;;;;6199978;23;20040;-67
2022/07/14 08:16:20;;;;;;;3.83;1.15;;;21.10;59.00;;;;;;6199388;23;20009;-65
2022/07/14 08:18:47;;;;;;;5.22;1.20;;;21.10;59.40;;;;;;6198958;23;20343;-66
2022/07/14 08:21:13;;;;;;;4.60;0.88;;;21.20;59.10;;;;;;6199639;23;20108;-66
2022/07/14 08:23:39;;;;;;;2.60;0.80;;;21.20;59.10;;;;;;6199602;23;20324;-66
2022/07/14 08:26:05;;;;;;;7.03;3.97;;;21.20;59.10;;;;;;6210233;23;20035;-66
2022/07/14 08:28:31;;;;;;;30.65;13.05;;;21.20;56.70;;;;;;6199601;23;20096;-68
2022/07/14 08:30:57;;;;;;;3.72;1.23;;;21.20;56.60;;;;;;6200342;23;20096;-68
2022/07/14 08:33:22;;;;;;;5.65;1.00;;;21.30;57.30;;;;;;6212489;23;20406;-69
2022/07/14 08:35:48;;;;;;;2.13;0.88;;;21.40;57.70;;;;;;6201539;23;20008;-69
2022/07/14 08:38:14;;;;;;;5.18;0.88;;;21.40;57.30;;;;;;6211251;23;20070;-68
2022/07/14 08:40:40;;;;;;;3.45;1.17;;;21.40;57.30;;;;;;6200313;23;20124;-70
2022/07/14 08:43:06;;;;;;;4.25;0.93;;;21.50;57.00;;;;;;6212062;23;20004;-71
2022/07/14 08:45:39;;;;;;;3.15;1.13;;;21.60;57.10;;;;;;6211461;23;20008;-71
2022/07/14 08:48:05;;;;;;;3.53;1.00;;;21.70;55.90;;;;;;6211291;23;20008;-69
2022/07/14 08:50:32;;;;;;;5.60;1.25;;;21.80;55.50;;;;;;6202407;23;20070;-70
2022/07/14 08:53:03;;;;;;;2.83;1.02;;;21.90;56.20;;;;;;6211578;23;20009;-71
2022/07/14 08:55:30;;;;;;;3.40;0.70;;;22.00;55.80;;;;;;6212348;23;20036;-69
2022/07/14 08:57:57;;;;;;;4.03;0.90;;;22.00;54.60;;;;;;6201177;23;20016;-70
2022/07/14 09:00:23;;;;;;;3.95;0.93;;;22.10;54.60;;;;;;6200996;23;20454;-69
2022/07/14 09:02:51;;;;;;;2.40;0.73;;;22.10;53.90;;;;;;6201058;23;20008;-70
2022/07/14 09:05:17;;;;;;;3.42;0.93;;;22.10;54.40;;;;;;6211612;23;20005;-71
2022/07/14 09:07:43;;;;;;;5.03;0.65;;;22.20;54.60;;;;;;6200402;23;20648;-71
2022/07/14 09:10:15;;;;;;;6.60;0.95;;;22.20;52.50;;;;;;6199316;23;20012;-75
2022/07/14 09:12:41;;;;;;;4.13;1.08;;;22.20;52.60;;;;;;6201373;23;20012;-75
2022/07/14 09:17:58;;;;;;;2.58;1.30;;;22.00;52.50;;;;;;6200272;23;20017;-76
2022/07/14 09:20:28;;;;;;;10.25;5.30;;;22.00;54.20;;;;;;6210660;23;20716;-75
2022/07/14 09:22:57;;;;;;;11.85;5.32;;;22.10;54.60;;;;;;6200900;23;20028;-75
2022/07/14 09:25:24;;;;;;;5.25;1.70;;;22.20;54.30;;;;;;6199587;23;20015;-74
2022/07/14 09:27:51;;;;;;;4.03;1.77;;;22.30;53.90;;;;;;6201123;23;20783;-75
2022/07/14 09:30:17;;;;;;;9.70;3.40;;;22.30;53.50;;;;;;6200501;23;20035;-76
2022/07/14 09:32:56;;;;;;;3.22;0.90;;;22.40;54.60;;;;;;6199310;23;20008;-73
2022/07/14 09:35:34;;;;;;;5.38;2.47;;;22.50;50.30;;;;;;6211433;23;20012;-76
2022/07/14 09:38:12;;;;;;;6.80;3.20;;;22.50;53.30;;;;;;6210372;23;20012;-76
2022/07/14 09:40:38;;;;;;;5.10;1.80;;;22.50;53.60;;;;;;6201467;23;20382;-76
2022/07/14 09:43:06;;;;;;;2.78;1.30;;;22.50;51.90;;;;;;6200380;23;20027;-76
2022/07/14 09:45:37;;;;;;;2.92;1.13;;;22.60;51.60;;;;;;6199986;23;20040;-77
2022/07/14 09:48:08;;;;;;;5.10;1.40;;;22.60;51.20;;;;;;6199617;23;20015;-76
2022/07/14 09:51:00;;;;;;;3.95;1.35;;;22.80;50.90;;;;;;6200097;23;20543;-77
2022/07/14 09:53:31;;;;;;;3.92;1.10;;;22.80;50.40;;;;;;6199501;23;20013;-72
2022/07/14 09:56:01;;;;;;;4.90;1.60;;;22.80;50.50;;;;;;6210534;23;20017;-76
2022/07/14 09:58:31;;;;;;;4.90;2.08;;;22.90;49.70;;;;;;6199548;23;20012;-77
2022/07/14 10:00:56;;;;;;;5.97;2.40;;;22.90;49.90;;;;;;6200377;23;20008;-76
2022/07/14 10:03:23;;;;;;;3.33;1.40;;;23.00;51.20;;;;;;6209764;23;20544;-77
2022/07/14 10:05:51;;;;;;;3.40;1.00;;;23.10;50.50;;;;;;6210324;23;20004;-77
2022/07/14 10:08:18;;;;;;;3.97;0.98;;;23.10;49.10;;;;;;6209985;23;20036;-76
2022/07/14 10:10:44;;;;;;;6.72;1.23;;;23.10;48.20;;;;;;6200759;23;20078;-76
2022/07/14 10:13:11;;;;;;;4.35;0.82;;;23.20;48.50;;;;;;6200346;23;20005;-76
2022/07/14 10:15:37;;;;;;;2.25;1.00;;;23.20;48.10;;;;;;6210071;23;20008;-77
2022/07/14 10:18:03;;;;;;;2.42;0.90;;;23.20;49.50;;;;;;6210473;23;20396;-77
2022/07/14 10:20:30;;;;;;;3.97;1.20;;;23.30;48.10;;;;;;6199978;23;20040;-76
2022/07/14 10:22:56;;;;;;;1.50;0.60;;;23.30;48.50;;;;;;6200116;23;20109;-77
2022/07/14 10:25:22;;;;;;;3.60;0.60;;;23.40;47.30;;;;;;6199856;23;20004;-76
2022/07/14 10:27:48;;;;;;;5.22;1.10;;;23.40;47.90;;;;;;6210215;23;20082;-76
2022/07/14 10:30:15;;;;;;;2.90;0.65;;;23.40;48.50;;;;;;6200469;23;20019;-74
2022/07/14 10:33:09;;;;;;;5.05;1.77;;;23.50;47.70;;;;;;6200290;23;20005;-74
2022/07/14 10:35:50;;;;;;;8.27;4.20;;;23.50;48.60;;;;;;6200674;23;20724;-74
2022/07/14 10:38:34;;;;;;;9.73;1.83;;;23.60;47.90;;;;;;6199415;23;20020;-74
2022/07/14 10:41:20;;;;;;;4.82;2.30;;;23.60;47.10;;;;;;6198693;23;20023;-74
2022/07/14 10:44:03;;;;;;;1.85;0.88;;;23.60;47.80;;;;;;6168338;23;20090;-74
2022/07/14 10:46:34;;;;;;;2.30;1.30;;;23.70;46.90;;;;;;6211226;23;20105;-74
2022/07/14 10:49:01;;;;;;;4.60;2.70;;;23.80;46.30;;;;;;6201076;23;20395;-74
2022/07/14 10:51:28;;;;;;;3.00;1.90;;;23.80;47.10;;;;;;6200471;23;20127;-74
2022/07/14 10:54:14;;;;;;;3.92;1.10;;;23.80;47.60;;;;;;6200527;23;20008;-73
2022/07/14 10:56:42;;;;;;;5.82;1.25;;;23.80;46.20;;;;;;6200015;23;20472;-73
2022/07/14 10:59:26;;;;;;;4.53;1.10;;;23.90;47.00;;;;;;6200546;23;20151;-73
2022/07/14 11:02:10;;;;;;;2.38;0.63;;;24.00;45.60;;;;;;6201076;23;20013;-72
2022/07/14 11:05:12;;;;;;;1.83;0.80;;;24.10;44.00;;;;;;6199833;23;20020;-74
2022/07/14 11:07:50;;;;;;;3.58;0.75;;;24.10;45.40;;;;;;6135616;23;20092;-74
2022/07/14 11:10:19;;;;;;;5.90;1.83;;;24.10;45.10;;;;;;6186740;23;20016;-74
2022/07/14 11:13:03;;;;;;;6.40;2.92;;;24.10;46.00;;;;;;6198224;23;20016;-77
2022/07/14 11:15:53;;;;;;;10.52;6.13;;;24.10;45.10;;;;;;6210481;23;20019;-75
2022/07/14 11:18:24;;;;;;;7.22;3.75;;;24.10;44.90;;;;;;6210066;23;20013;-74
2022/07/14 11:21:07;;;;;;;3.72;2.03;;;24.20;44.70;;;;;;6200894;23;20442;-75
2022/07/14 11:23:50;;;;;;;8.32;4.40;;;24.20;41.90;;;;;;6201059;23;20013;-75
2022/07/14 11:26:40;;;;;;;7.32;3.30;;;24.30;43.60;;;;;;6201154;23;20012;-76
2022/07/14 11:29:09;;;;;;;4.82;2.90;;;24.30;44.40;;;;;;6200604;23;20040;-75
2022/07/14 11:31:46;;;;;;;6.85;3.30;;;24.30;44.40;;;;;;6199835;23;20102;-74
2022/07/14 11:37:11;;;;;;;4.13;2.00;;;24.50;42.00;;;;;;6199884;23;20027;-74
2022/07/14 11:39:39;;;;;;;2.25;1.10;;;24.50;42.90;;;;;;6200772;23;20702;-75
2022/07/14 11:42:17;;;;;;;6.03;1.65;;;24.60;42.80;;;;;;6210275;23;20439;-74
2022/07/14 11:44:43;;;;;;;13.52;6.53;;;24.50;44.20;;;;;;6200337;23;20023;-76
2022/07/14 11:47:15;;;;;;;15.48;8.40;;;24.60;42.40;;;;;;6200755;23;20010;-76
2022/07/14 11:49:49;;;;;;;6.38;2.78;;;24.60;42.70;;;;;;6210512;23;20009;-75
2022/07/14 11:52:15;;;;;;;8.82;4.47;;;24.70;41.30;;;;;;6210729;23;20005;-75
2022/07/14 11:54:42;;;;;;;5.50;2.90;;;24.80;42.40;;;;;;6200643;23;20529;-76
2022/07/14 11:57:10;;;;;;;8.13;3.92;;;24.80;41.70;;;;;;6198366;23;20004;-76
2022/07/14 11:59:41;;;;;;;5.65;2.63;;;24.80;42.80;;;;;;6200248;23;20112;-76
2022/07/14 12:02:08;;;;;;;2.13;0.73;;;24.70;41.90;;;;;;6199803;23;20008;-76
2022/07/14 12:04:34;;;;;;;2.67;0.50;;;24.60;39.50;;;;;;6210382;23;20043;-75
2022/07/14 12:06:59;;;;;;;2.70;0.77;;;24.60;40.30;;;;;;6211017;23;20028;-76
2022/07/14 12:09:33;;;;;;;2.92;0.60;;;24.60;41.00;;;;;;6202795;23;20036;-76
2022/07/14 12:11:59;;;;;;;1.73;0.50;;;24.70;41.40;;;;;;6212501;23;20012;-76
2022/07/14 12:14:25;;;;;;;3.28;1.92;;;24.80;41.50;;;;;;6202016;23;20091;-75
2022/07/14 12:16:51;;;;;;;1.35;0.50;;;24.80;39.60;;;;;;6200792;23;20020;-76
2022/07/14 12:19:28;;;;;;;2.88;0.50;;;24.80;39.40;;;;;;6202632;23;20082;-76
2022/07/14 12:22:03;;;;;;;1.95;0.60;;;24.80;40.60;;;;;;6202365;23;20032;-76
2022/07/14 12:24:29;;;;;;;3.15;0.85;;;24.80;39.90;;;;;;6212407;23;20509;-76
2022/07/14 12:26:57;;;;;;;2.63;0.80;;;24.90;41.00;;;;;;6200463;23;20020;-76
2022/07/14 12:29:23;;;;;;;2.78;0.50;;;25.00;41.30;;;;;;6201354;23;20005;-76
2022/07/14 12:31:49;;;;;;;2.45;0.70;;;25.00;41.00;;;;;;6202264;23;20484;-76
2022/07/14 12:34:16;;;;;;;3.95;0.80;;;25.00;40.50;;;;;;6199593;23;20016;-76
2022/07/14 12:36:42;;;;;;;3.85;0.73;;;24.90;41.90;;;;;;6200739;23;20016;-76
2022/07/14 12:39:09;;;;;;;1.83;0.73;;;24.90;40.80;;;;;;6202495;23;20017;-76
2022/07/14 12:41:37;;;;;;;2.97;0.50;;;24.80;41.50;;;;;;6201973;23;20009;-76
2022/07/14 12:44:08;;;;;;;1.55;0.43;;;24.90;41.90;;;;;;6201496;23;20020;-76
2022/07/14 12:46:34;;;;;;;2.05;0.30;;;24.90;40.90;;;;;;6199755;23;20009;-76
2022/07/14 12:49:05;;;;;;;1.75;0.52;;;25.00;41.50;;;;;;6200099;23;20016;-76
2022/07/14 12:51:37;;;;;;;4.65;0.55;;;25.00;41.50;;;;;;6201104;23;20533;-76
2022/07/14 12:54:30;;;;;;;3.63;1.83;;;25.00;40.80;;;;;;6212226;23;20083;-76
2022/07/14 12:56:56;;;;;;;5.30;1.88;;;25.00;42.20;;;;;;6201694;23;20023;-75
2022/07/14 12:59:27;;;;;;;3.30;1.05;;;25.10;42.10;;;;;;6202456;23;20399;-75
2022/07/14 13:02:02;;;;;;;2.55;1.33;;;25.10;41.10;;;;;;6211951;23;20004;-75
2022/07/14 13:04:45;;;;;;;1.83;0.93;;;25.10;41.80;;;;;;6201195;23;20016;-77
2022/07/14 13:07:25;;;;;;;2.88;0.95;;;25.20;41.00;;;;;;6201620;23;20016;-75
2022/07/14 13:10:11;;;;;;;2.78;1.08;;;25.20;40.60;;;;;;6202203;23;20394;-76
2022/07/14 13:12:42;;;;;;;2.72;0.80;;;25.20;40.40;;;;;;6211286;23;20599;-76